sensor_id;sensor_type;location;lat;lon;timestamp;P1;durP1;ratioP1;P2;durP2;ratioP2
77984;SDS011;67177;47.240;-1.546;2023-03-01T00:01:58;10.15;;;6.03;;
77984;SDS011;67177;47.240;-1.546;2023-03-01T00:04:24;9.93;;;5.67;;
77984;SDS011;67177;47.240;-1.546;2023-03-01T00:06:50;9.90;;;4.90;;
77984;SDS011;67177;47.240;-1.546;2023-03-01T00:09:15;9.82;;;5.75;;
77984;SDS011;67177;47.240;-1.546;2023-03-01T00:11:41;10.93;;;5.70;;
77984;SDS011;67177;47.240;-1.546;2023-03-01T00:14:07;11.67;;;6.53;;
77984;SDS011;67177;47.240;-1.546;2023-03-01T00:16:34;10.55;;;6.10;;
77984;SDS011;67177;47.240;-1.546;2023-03-01T00:19:03;11.32;;;6.10;;
77984;SDS011;67177;47.240;-1.546;2023-03-01T00:21:30;10.50;;;6.33;;
77984;SDS011;67177;47.240;-1.546;2023-03-01T00:23:56;10.10;;;5.80;;
77984;SDS011;67177;47.240;-1.546;2023-03-01T00:26:22;10.85;;;6.68;;
77984;SDS011;67177;47.240;-1.546;2023-03-01T00:28:49;11.65;;;6.32;;
77984;SDS011;67177;47.240;-1.546;2023-03-01T00:31:17;10.93;;;6.37;;
77984;SDS011;67177;47.240;-1.546;2023-03-01T00:33:44;11.20;;;6.75;;
77984;SDS011;67177;47.240;-1.546;2023-03-01T00:36:10;12.40;;;7.13;;
77984;SDS011;67177;47.240;-1.546;2023-03-01T00:38:39;11.17;;;6.40;;
77984;SDS011;67177;47.240;-1.546;2023-03-01T00:41:06;11.00;;;6.20;;
77984;SDS011;67177;47.240;-1.546;2023-03-01T00:43:34;11.93;;;6.25;;
77984;SDS011;67177;47.240;-1.546;2023-03-01T00:46:07;10.10;;;5.80;;
77984;SDS011;67177;47.240;-1.546;2023-03-01T00:48:36;10.43;;;6.23;;
77984;SDS011;67177;47.240;-1.546;2023-03-01T00:51:06;12.52;;;6.50;;
77984;SDS011;67177;47.240;-1.546;2023-03-01T00:53:34;10.85;;;6.30;;
77984;SDS011;67177;47.240;-1.546;2023-03-01T00:56:00;11.77;;;6.57;;
77984;SDS011;67177;47.240;-1.546;2023-03-01T00:58:26;12.50;;;6.83;;
77984;SDS011;67177;47.240;-1.546;2023-03-01T01:00:52;11.23;;;6.35;;
77984;SDS011;67177;47.240;-1.546;2023-03-01T01:03:18;11.02;;;6.30;;
77984;SDS011;67177;47.240;-1.546;2023-03-01T01:05:44;11.70;;;6.10;;
77984;SDS011;67177;47.240;-1.546;2023-03-01T01:08:10;10.15;;;5.85;;
77984;SDS011;67177;47.240;-1.546;2023-03-01T01:10:36;10.73;;;5.93;;
77984;SDS011;67177;47.240;-1.546;2023-03-01T01:13:03;12.15;;;6.25;;
77984;SDS011;67177;47.240;-1.546;2023-03-01T01:15:29;11.93;;;6.15;;
77984;SDS011;67177;47.240;-1.546;2023-03-01T01:17:58;12.73;;;6.88;;
77984;SDS011;67177;47.240;-1.546;2023-03-01T01:20:24;11.83;;;6.80;;
77984;SDS011;67177;47.240;-1.546;2023-03-01T01:22:49;11.02;;;6.60;;
77984;SDS011;67177;47.240;-1.546;2023-03-01T01:25:16;12.02;;;6.35;;
77984;SDS011;67177;47.240;-1.546;2023-03-01T01:27:42;12.60;;;6.82;;
77984;SDS011;67177;47.240;-1.546;2023-03-01T01:30:08;10.93;;;6.30;;
77984;SDS011;67177;47.240;-1.546;2023-03-01T01:32:34;11.77;;;6.57;;
77984;SDS011;67177;47.240;-1.546;2023-03-01T01:34:59;11.55;;;6.22;;
77984;SDS011;67177;47.240;-1.546;2023-03-01T01:37:25;12.10;;;6.33;;
77984;SDS011;67177;47.240;-1.546;2023-03-01T01:39:56;11.15;;;6.93;;
77984;SDS011;67177;47.240;-1.546;2023-03-01T01:42:24;12.70;;;6.88;;
77984;SDS011;67177;47.240;-1.546;2023-03-01T01:45:15;13.27;;;7.37;;
77984;SDS011;67177;47.240;-1.546;2023-03-01T01:47:52;11.60;;;7.13;;
77984;SDS011;67177;47.240;-1.546;2023-03-01T01:50:21;12.15;;;7.07;;
77984;SDS011;67177;47.240;-1.546;2023-03-01T01:52:48;10.48;;;6.22;;
77984;SDS011;67177;47.240;-1.546;2023-03-01T01:55:18;10.27;;;6.07;;
77984;SDS011;67177;47.240;-1.546;2023-03-01T01:57:58;9.20;;;5.10;;
77984;SDS011;67177;47.240;-1.546;2023-03-01T02:00:27;9.55;;;5.30;;
77984;SDS011;67177;47.240;-1.546;2023-03-01T02:02:56;10.13;;;5.28;;
77984;SDS011;67177;47.240;-1.546;2023-03-01T02:08:31;9.68;;;5.50;;
77984;SDS011;67177;47.240;-1.546;2023-03-01T02:11:00;10.68;;;5.70;;
77984;SDS011;67177;47.240;-1.546;2023-03-01T02:13:29;11.00;;;6.18;;
77984;SDS011;67177;47.240;-1.546;2023-03-01T02:15:56;10.70;;;6.00;;
77984;SDS011;67177;47.240;-1.546;2023-03-01T02:18:22;9.57;;;5.60;;
77984;SDS011;67177;47.240;-1.546;2023-03-01T02:23:53;10.53;;;5.83;;
77984;SDS011;67177;47.240;-1.546;2023-03-01T02:28:52;11.00;;;6.38;;
77984;SDS011;67177;47.240;-1.546;2023-03-01T02:31:19;10.13;;;6.27;;
77984;SDS011;67177;47.240;-1.546;2023-03-01T02:34:05;11.57;;;6.90;;
77984;SDS011;67177;47.240;-1.546;2023-03-01T02:36:34;11.48;;;6.88;;
77984;SDS011;67177;47.240;-1.546;2023-03-01T02:39:07;11.05;;;6.55;;
77984;SDS011;67177;47.240;-1.546;2023-03-01T02:41:39;10.50;;;6.35;;
77984;SDS011;67177;47.240;-1.546;2023-03-01T02:44:09;9.88;;;5.90;;
77984;SDS011;67177;47.240;-1.546;2023-03-01T02:46:41;11.30;;;6.63;;
77984;SDS011;67177;47.240;-1.546;2023-03-01T02:49:25;11.15;;;6.35;;
77984;SDS011;67177;47.240;-1.546;2023-03-01T02:55:06;9.07;;;5.38;;
77984;SDS011;67177;47.240;-1.546;2023-03-01T02:57:40;10.85;;;6.35;;
77984;SDS011;67177;47.240;-1.546;2023-03-01T03:00:12;9.02;;;5.45;;
77984;SDS011;67177;47.240;-1.546;2023-03-01T03:02:59;9.90;;;5.00;;
77984;SDS011;67177;47.240;-1.546;2023-03-01T03:05:26;10.07;;;5.77;;
77984;SDS011;67177;47.240;-1.546;2023-03-01T03:07:53;9.57;;;5.95;;
77984;SDS011;67177;47.240;-1.546;2023-03-01T03:10:23;10.32;;;5.57;;
77984;SDS011;67177;47.240;-1.546;2023-03-01T03:12:59;11.07;;;5.57;;
77984;SDS011;67177;47.240;-1.546;2023-03-01T03:15:27;9.88;;;5.70;;
77984;SDS011;67177;47.240;-1.546;2023-03-01T03:17:54;9.20;;;5.70;;
77984;SDS011;67177;47.240;-1.546;2023-03-01T03:20:21;9.05;;;5.25;;
77984;SDS011;67177;47.240;-1.546;2023-03-01T03:22:50;9.47;;;5.50;;
77984;SDS011;67177;47.240;-1.546;2023-03-01T03:25:17;11.07;;;6.35;;
77984;SDS011;67177;47.240;-1.546;2023-03-01T03:27:45;9.90;;;5.95;;
77984;SDS011;67177;47.240;-1.546;2023-03-01T03:30:13;11.43;;;5.93;;
77984;SDS011;67177;47.240;-1.546;2023-03-01T03:32:44;10.13;;;6.07;;
77984;SDS011;67177;47.240;-1.546;2023-03-01T03:37:47;9.93;;;6.05;;
77984;SDS011;67177;47.240;-1.546;2023-03-01T03:40:29;11.02;;;6.32;;
77984;SDS011;67177;47.240;-1.546;2023-03-01T03:42:56;8.98;;;5.88;;
77984;SDS011;67177;47.240;-1.546;2023-03-01T03:45:21;11.90;;;6.43;;
77984;SDS011;67177;47.240;-1.546;2023-03-01T03:47:47;12.57;;;6.73;;
77984;SDS011;67177;47.240;-1.546;2023-03-01T03:50:14;11.73;;;6.78;;
77984;SDS011;67177;47.240;-1.546;2023-03-01T03:52:41;10.00;;;6.45;;
77984;SDS011;67177;47.240;-1.546;2023-03-01T03:55:08;11.32;;;5.95;;
77984;SDS011;67177;47.240;-1.546;2023-03-01T03:57:35;10.10;;;5.90;;
77984;SDS011;67177;47.240;-1.546;2023-03-01T04:00:08;12.00;;;6.18;;
77984;SDS011;67177;47.240;-1.546;2023-03-01T04:02:39;11.63;;;6.63;;
77984;SDS011;67177;47.240;-1.546;2023-03-01T04:05:09;10.77;;;6.75;;
77984;SDS011;67177;47.240;-1.546;2023-03-01T04:07:37;11.73;;;6.75;;
77984;SDS011;67177;47.240;-1.546;2023-03-01T04:10:04;12.50;;;7.63;;
77984;SDS011;67177;47.240;-1.546;2023-03-01T04:12:31;11.30;;;7.00;;
77984;SDS011;67177;47.240;-1.546;2023-03-01T04:14:59;12.80;;;7.20;;
77984;SDS011;67177;47.240;-1.546;2023-03-01T04:17:26;11.70;;;6.50;;
77984;SDS011;67177;47.240;-1.546;2023-03-01T04:19:51;13.52;;;7.70;;
77984;SDS011;67177;47.240;-1.546;2023-03-01T04:22:18;12.45;;;7.10;;
77984;SDS011;67177;47.240;-1.546;2023-03-01T04:24:44;12.30;;;7.40;;
77984;SDS011;67177;47.240;-1.546;2023-03-01T04:27:10;12.85;;;7.57;;
77984;SDS011;67177;47.240;-1.546;2023-03-01T04:29:36;12.55;;;7.38;;
77984;SDS011;67177;47.240;-1.546;2023-03-01T04:32:01;11.83;;;7.07;;
77984;SDS011;67177;47.240;-1.546;2023-03-01T04:34:28;10.90;;;6.78;;
77984;SDS011;67177;47.240;-1.546;2023-03-01T04:36:54;11.57;;;6.85;;
77984;SDS011;67177;47.240;-1.546;2023-03-01T04:39:20;11.57;;;6.55;;
77984;SDS011;67177;47.240;-1.546;2023-03-01T04:41:46;12.63;;;7.32;;
77984;SDS011;67177;47.240;-1.546;2023-03-01T04:44:11;12.17;;;7.33;;
77984;SDS011;67177;47.240;-1.546;2023-03-01T04:46:38;12.27;;;7.00;;
77984;SDS011;67177;47.240;-1.546;2023-03-01T04:49:03;11.07;;;6.75;;
77984;SDS011;67177;47.240;-1.546;2023-03-01T04:51:30;11.93;;;6.80;;
77984;SDS011;67177;47.240;-1.546;2023-03-01T04:53:57;11.18;;;6.03;;
77984;SDS011;67177;47.240;-1.546;2023-03-01T04:56:23;10.85;;;6.18;;
77984;SDS011;67177;47.240;-1.546;2023-03-01T04:58:49;10.37;;;6.37;;
77984;SDS011;67177;47.240;-1.546;2023-03-01T05:01:16;11.57;;;5.90;;
77984;SDS011;67177;47.240;-1.546;2023-03-01T05:03:45;13.32;;;6.45;;
77984;SDS011;67177;47.240;-1.546;2023-03-01T05:06:13;11.27;;;6.60;;
77984;SDS011;67177;47.240;-1.546;2023-03-01T05:08:40;12.15;;;6.70;;
77984;SDS011;67177;47.240;-1.546;2023-03-01T05:11:06;11.13;;;6.53;;
77984;SDS011;67177;47.240;-1.546;2023-03-01T05:13:34;10.18;;;6.15;;
77984;SDS011;67177;47.240;-1.546;2023-03-01T05:16:01;10.77;;;6.37;;
77984;SDS011;67177;47.240;-1.546;2023-03-01T05:18:29;10.75;;;6.57;;
77984;SDS011;67177;47.240;-1.546;2023-03-01T05:21:01;11.50;;;6.53;;
77984;SDS011;67177;47.240;-1.546;2023-03-01T05:23:29;11.40;;;6.63;;
77984;SDS011;67177;47.240;-1.546;2023-03-01T05:25:59;13.27;;;7.57;;
77984;SDS011;67177;47.240;-1.546;2023-03-01T05:28:25;13.38;;;6.90;;
77984;SDS011;67177;47.240;-1.546;2023-03-01T05:30:51;11.32;;;6.72;;
77984;SDS011;67177;47.240;-1.546;2023-03-01T05:33:17;9.70;;;6.33;;
77984;SDS011;67177;47.240;-1.546;2023-03-01T05:35:44;11.02;;;5.80;;
77984;SDS011;67177;47.240;-1.546;2023-03-01T05:38:10;10.07;;;5.63;;
77984;SDS011;67177;47.240;-1.546;2023-03-01T05:40:41;9.77;;;5.75;;
77984;SDS011;67177;47.240;-1.546;2023-03-01T05:43:08;10.03;;;5.80;;
77984;SDS011;67177;47.240;-1.546;2023-03-01T05:45:35;10.45;;;6.25;;
77984;SDS011;67177;47.240;-1.546;2023-03-01T05:48:01;11.90;;;6.25;;
77984;SDS011;67177;47.240;-1.546;2023-03-01T05:50:28;10.52;;;6.28;;
77984;SDS011;67177;47.240;-1.546;2023-03-01T05:53:02;10.35;;;6.13;;
77984;SDS011;67177;47.240;-1.546;2023-03-01T05:55:33;9.88;;;6.40;;
77984;SDS011;67177;47.240;-1.546;2023-03-01T05:58:00;10.23;;;5.60;;
77984;SDS011;67177;47.240;-1.546;2023-03-01T06:00:28;9.90;;;5.50;;
77984;SDS011;67177;47.240;-1.546;2023-03-01T06:02:55;10.15;;;6.03;;
77984;SDS011;67177;47.240;-1.546;2023-03-01T06:05:22;11.50;;;6.65;;
77984;SDS011;67177;47.240;-1.546;2023-03-01T06:07:48;10.52;;;6.57;;
77984;SDS011;67177;47.240;-1.546;2023-03-01T06:10:15;11.23;;;6.03;;
77984;SDS011;67177;47.240;-1.546;2023-03-01T06:12:42;10.55;;;5.65;;
77984;SDS011;67177;47.240;-1.546;2023-03-01T06:15:09;10.95;;;6.45;;
77984;SDS011;67177;47.240;-1.546;2023-03-01T06:17:36;10.63;;;6.50;;
77984;SDS011;67177;47.240;-1.546;2023-03-01T06:20:04;11.03;;;6.23;;
77984;SDS011;67177;47.240;-1.546;2023-03-01T06:22:31;10.82;;;6.20;;
77984;SDS011;67177;47.240;-1.546;2023-03-01T06:24:57;11.63;;;6.68;;
77984;SDS011;67177;47.240;-1.546;2023-03-01T06:27:22;12.10;;;6.67;;
77984;SDS011;67177;47.240;-1.546;2023-03-01T06:29:48;12.43;;;6.72;;
77984;SDS011;67177;47.240;-1.546;2023-03-01T06:32:14;12.33;;;7.13;;
77984;SDS011;67177;47.240;-1.546;2023-03-01T06:34:39;11.57;;;6.80;;
77984;SDS011;67177;47.240;-1.546;2023-03-01T06:37:06;10.40;;;6.38;;
77984;SDS011;67177;47.240;-1.546;2023-03-01T06:39:32;11.57;;;6.13;;
77984;SDS011;67177;47.240;-1.546;2023-03-01T06:41:58;11.73;;;6.47;;
77984;SDS011;67177;47.240;-1.546;2023-03-01T06:44:24;11.27;;;6.00;;
77984;SDS011;67177;47.240;-1.546;2023-03-01T06:46:50;10.18;;;6.10;;
77984;SDS011;67177;47.240;-1.546;2023-03-01T06:49:15;9.77;;;5.80;;
77984;SDS011;67177;47.240;-1.546;2023-03-01T06:51:42;11.02;;;6.22;;
77984;SDS011;67177;47.240;-1.546;2023-03-01T06:54:09;10.50;;;5.80;;
77984;SDS011;67177;47.240;-1.546;2023-03-01T06:56:35;10.40;;;6.47;;
77984;SDS011;67177;47.240;-1.546;2023-03-01T06:59:01;11.00;;;6.90;;
77984;SDS011;67177;47.240;-1.546;2023-03-01T07:01:27;11.30;;;7.17;;
77984;SDS011;67177;47.240;-1.546;2023-03-01T07:03:54;12.38;;;7.07;;
77984;SDS011;67177;47.240;-1.546;2023-03-01T07:06:20;11.75;;;6.55;;
77984;SDS011;67177;47.240;-1.546;2023-03-01T07:08:46;11.20;;;6.67;;
77984;SDS011;67177;47.240;-1.546;2023-03-01T07:11:12;12.23;;;7.35;;
77984;SDS011;67177;47.240;-1.546;2023-03-01T07:13:38;11.63;;;6.85;;
77984;SDS011;67177;47.240;-1.546;2023-03-01T07:16:03;13.13;;;7.20;;
77984;SDS011;67177;47.240;-1.546;2023-03-01T07:18:29;13.90;;;6.97;;
77984;SDS011;67177;47.240;-1.546;2023-03-01T07:20:55;12.17;;;7.03;;
77984;SDS011;67177;47.240;-1.546;2023-03-01T07:23:21;13.65;;;6.43;;
77984;SDS011;67177;47.240;-1.546;2023-03-01T07:25:53;10.77;;;5.90;;
77984;SDS011;67177;47.240;-1.546;2023-03-01T07:28:19;10.52;;;6.25;;
77984;SDS011;67177;47.240;-1.546;2023-03-01T07:30:45;10.88;;;6.00;;
77984;SDS011;67177;47.240;-1.546;2023-03-01T07:33:10;12.03;;;6.10;;
77984;SDS011;67177;47.240;-1.546;2023-03-01T07:35:36;12.30;;;6.83;;
77984;SDS011;67177;47.240;-1.546;2023-03-01T07:38:02;13.13;;;6.90;;
77984;SDS011;67177;47.240;-1.546;2023-03-01T07:40:27;10.13;;;6.23;;
77984;SDS011;67177;47.240;-1.546;2023-03-01T07:42:57;9.40;;;5.47;;
77984;SDS011;67177;47.240;-1.546;2023-03-01T07:45:23;10.95;;;6.40;;
77984;SDS011;67177;47.240;-1.546;2023-03-01T07:47:50;12.07;;;6.57;;
77984;SDS011;67177;47.240;-1.546;2023-03-01T07:50:18;11.32;;;6.53;;
77984;SDS011;67177;47.240;-1.546;2023-03-01T07:52:47;10.88;;;5.95;;
77984;SDS011;67177;47.240;-1.546;2023-03-01T07:55:14;10.77;;;7.00;;
77984;SDS011;67177;47.240;-1.546;2023-03-01T07:57:40;12.13;;;6.35;;
77984;SDS011;67177;47.240;-1.546;2023-03-01T08:00:06;12.73;;;6.80;;
77984;SDS011;67177;47.240;-1.546;2023-03-01T08:02:33;13.00;;;7.22;;
77984;SDS011;67177;47.240;-1.546;2023-03-01T08:04:59;11.98;;;6.15;;
77984;SDS011;67177;47.240;-1.546;2023-03-01T08:07:24;10.33;;;5.83;;
77984;SDS011;67177;47.240;-1.546;2023-03-01T08:09:50;12.37;;;6.37;;
77984;SDS011;67177;47.240;-1.546;2023-03-01T08:12:16;11.35;;;6.55;;
77984;SDS011;67177;47.240;-1.546;2023-03-01T08:14:42;12.23;;;6.77;;
77984;SDS011;67177;47.240;-1.546;2023-03-01T08:17:08;11.02;;;6.65;;
77984;SDS011;67177;47.240;-1.546;2023-03-01T08:19:33;11.00;;;6.28;;
77984;SDS011;67177;47.240;-1.546;2023-03-01T08:22:00;10.57;;;5.73;;
77984;SDS011;67177;47.240;-1.546;2023-03-01T08:24:26;11.13;;;5.85;;
77984;SDS011;67177;47.240;-1.546;2023-03-01T08:26:52;11.95;;;6.15;;
77984;SDS011;67177;47.240;-1.546;2023-03-01T08:29:19;10.23;;;5.93;;
77984;SDS011;67177;47.240;-1.546;2023-03-01T08:31:44;9.75;;;5.28;;
77984;SDS011;67177;47.240;-1.546;2023-03-01T08:34:11;12.33;;;6.60;;
77984;SDS011;67177;47.240;-1.546;2023-03-01T08:36:42;14.05;;;7.68;;
77984;SDS011;67177;47.240;-1.546;2023-03-01T08:39:10;12.20;;;6.88;;
77984;SDS011;67177;47.240;-1.546;2023-03-01T08:41:38;11.68;;;6.30;;
77984;SDS011;67177;47.240;-1.546;2023-03-01T08:44:04;11.75;;;6.20;;
77984;SDS011;67177;47.240;-1.546;2023-03-01T08:46:31;12.07;;;6.93;;
77984;SDS011;67177;47.240;-1.546;2023-03-01T08:48:57;13.00;;;7.32;;
77984;SDS011;67177;47.240;-1.546;2023-03-01T08:51:24;11.95;;;6.82;;
77984;SDS011;67177;47.240;-1.546;2023-03-01T08:53:50;11.65;;;6.35;;
77984;SDS011;67177;47.240;-1.546;2023-03-01T08:56:17;11.87;;;6.67;;
77984;SDS011;67177;47.240;-1.546;2023-03-01T08:58:46;11.88;;;6.95;;
77984;SDS011;67177;47.240;-1.546;2023-03-01T09:01:14;11.82;;;6.78;;
77984;SDS011;67177;47.240;-1.546;2023-03-01T09:03:41;12.98;;;7.05;;
77984;SDS011;67177;47.240;-1.546;2023-03-01T09:06:08;14.43;;;7.40;;
77984;SDS011;67177;47.240;-1.546;2023-03-01T09:08:35;12.38;;;7.40;;
77984;SDS011;67177;47.240;-1.546;2023-03-01T09:11:03;11.75;;;7.78;;
77984;SDS011;67177;47.240;-1.546;2023-03-01T09:13:29;14.00;;;8.30;;
77984;SDS011;67177;47.240;-1.546;2023-03-01T09:15:58;12.80;;;7.63;;
77984;SDS011;67177;47.240;-1.546;2023-03-01T09:18:25;12.82;;;7.18;;
77984;SDS011;67177;47.240;-1.546;2023-03-01T09:20:51;11.85;;;7.50;;
77984;SDS011;67177;47.240;-1.546;2023-03-01T09:23:16;14.07;;;7.70;;
77984;SDS011;67177;47.240;-1.546;2023-03-01T09:25:42;13.98;;;7.25;;
77984;SDS011;67177;47.240;-1.546;2023-03-01T09:28:08;11.73;;;6.87;;
77984;SDS011;67177;47.240;-1.546;2023-03-01T09:30:35;12.98;;;6.88;;
77984;SDS011;67177;47.240;-1.546;2023-03-01T09:33:01;13.27;;;7.57;;
77984;SDS011;67177;47.240;-1.546;2023-03-01T09:35:27;15.48;;;8.50;;
77984;SDS011;67177;47.240;-1.546;2023-03-01T09:37:53;13.23;;;6.97;;
77984;SDS011;67177;47.240;-1.546;2023-03-01T09:40:20;14.15;;;7.65;;
77984;SDS011;67177;47.240;-1.546;2023-03-01T09:43:08;11.05;;;6.35;;
77984;SDS011;67177;47.240;-1.546;2023-03-01T09:45:43;13.05;;;7.25;;
77984;SDS011;67177;47.240;-1.546;2023-03-01T09:48:15;12.20;;;6.50;;
77984;SDS011;67177;47.240;-1.546;2023-03-01T09:50:43;11.75;;;6.60;;
77984;SDS011;67177;47.240;-1.546;2023-03-01T09:53:15;11.57;;;6.20;;
77984;SDS011;67177;47.240;-1.546;2023-03-01T09:55:43;12.10;;;6.50;;
77984;SDS011;67177;47.240;-1.546;2023-03-01T10:01:46;13.43;;;6.75;;
77984;SDS011;67177;47.240;-1.546;2023-03-01T10:04:00;14.37;;;7.20;;
77984;SDS011;67177;47.240;-1.546;2023-03-01T10:06:42;11.07;;;6.28;;
77984;SDS011;67177;47.240;-1.546;2023-03-01T10:09:17;11.13;;;6.13;;
77984;SDS011;67177;47.240;-1.546;2023-03-01T10:11:48;10.88;;;5.90;;
77984;SDS011;67177;47.240;-1.546;2023-03-01T10:16:55;12.47;;;6.60;;
77984;SDS011;67177;47.240;-1.546;2023-03-01T10:19:32;12.07;;;6.95;;
77984;SDS011;67177;47.240;-1.546;2023-03-01T10:24:46;12.93;;;7.70;;
77984;SDS011;67177;47.240;-1.546;2023-03-01T10:27:23;13.05;;;7.10;;
77984;SDS011;67177;47.240;-1.546;2023-03-01T10:30:10;12.63;;;6.53;;
77984;SDS011;67177;47.240;-1.546;2023-03-01T10:32:44;15.23;;;8.07;;
77984;SDS011;67177;47.240;-1.546;2023-03-01T10:40:31;15.27;;;7.43;;
77984;SDS011;67177;47.240;-1.546;2023-03-01T10:42:58;13.07;;;7.30;;
77984;SDS011;67177;47.240;-1.546;2023-03-01T10:50:51;12.38;;;6.38;;
77984;SDS011;67177;47.240;-1.546;2023-03-01T10:53:34;10.65;;;6.15;;
77984;SDS011;67177;47.240;-1.546;2023-03-01T10:56:14;13.27;;;6.83;;
77984;SDS011;67177;47.240;-1.546;2023-03-01T10:59:00;10.98;;;5.80;;
77984;SDS011;67177;47.240;-1.546;2023-03-01T11:01:32;13.00;;;6.45;;
77984;SDS011;67177;47.240;-1.546;2023-03-01T11:06:33;13.57;;;7.25;;
77984;SDS011;67177;47.240;-1.546;2023-03-01T11:11:57;15.05;;;7.93;;
77984;SDS011;67177;47.240;-1.546;2023-03-01T11:14:26;13.50;;;7.30;;
77984;SDS011;67177;47.240;-1.546;2023-03-01T11:17:03;12.70;;;6.72;;
77984;SDS011;67177;47.240;-1.546;2023-03-01T11:22:37;15.50;;;7.10;;
77984;SDS011;67177;47.240;-1.546;2023-03-01T11:25:17;12.50;;;6.80;;
77984;SDS011;67177;47.240;-1.546;2023-03-01T11:27:48;14.27;;;6.38;;
77984;SDS011;67177;47.240;-1.546;2023-03-01T11:33:20;13.35;;;7.13;;
77984;SDS011;67177;47.240;-1.546;2023-03-01T11:36:03;11.93;;;6.20;;
77984;SDS011;67177;47.240;-1.546;2023-03-01T11:38:36;13.68;;;6.60;;
77984;SDS011;67177;47.240;-1.546;2023-03-01T11:41:20;12.30;;;6.38;;
77984;SDS011;67177;47.240;-1.546;2023-03-01T11:43:55;11.70;;;6.35;;
77984;SDS011;67177;47.240;-1.546;2023-03-01T12:00:02;13.45;;;7.13;;
77984;SDS011;67177;47.240;-1.546;2023-03-01T12:08:42;12.13;;;6.53;;
77984;SDS011;67177;47.240;-1.546;2023-03-01T12:22:29;12.88;;;7.43;;
77984;SDS011;67177;47.240;-1.546;2023-03-01T12:25:10;13.05;;;6.90;;
77984;SDS011;67177;47.240;-1.546;2023-03-01T12:41:46;14.45;;;7.95;;
77984;SDS011;67177;47.240;-1.546;2023-03-01T12:50:20;11.02;;;6.18;;
77984;SDS011;67177;47.240;-1.546;2023-03-01T12:52:57;12.32;;;7.10;;
77984;SDS011;67177;47.240;-1.546;2023-03-01T12:55:31;10.88;;;6.55;;
77984;SDS011;67177;47.240;-1.546;2023-03-01T13:11:34;11.73;;;7.13;;
77984;SDS011;67177;47.240;-1.546;2023-03-01T13:14:45;12.30;;;6.88;;
77984;SDS011;67177;47.240;-1.546;2023-03-01T13:16:48;11.40;;;6.38;;
77984;SDS011;67177;47.240;-1.546;2023-03-01T13:19:17;11.67;;;6.47;;
77984;SDS011;67177;47.240;-1.546;2023-03-01T13:21:48;11.82;;;6.82;;
77984;SDS011;67177;47.240;-1.546;2023-03-01T13:24:35;12.90;;;7.00;;
77984;SDS011;67177;47.240;-1.546;2023-03-01T13:32:31;13.50;;;7.03;;
77984;SDS011;67177;47.240;-1.546;2023-03-01T13:35:00;14.13;;;7.18;;
77984;SDS011;67177;47.240;-1.546;2023-03-01T13:37:31;12.25;;;6.78;;
77984;SDS011;67177;47.240;-1.546;2023-03-01T13:40:00;11.77;;;6.65;;
77984;SDS011;67177;47.240;-1.546;2023-03-01T13:42:34;10.80;;;6.07;;
77984;SDS011;67177;47.240;-1.546;2023-03-01T13:45:03;10.67;;;5.90;;
77984;SDS011;67177;47.240;-1.546;2023-03-01T13:47:41;12.73;;;6.95;;
77984;SDS011;67177;47.240;-1.546;2023-03-01T13:50:15;11.60;;;6.90;;
77984;SDS011;67177;47.240;-1.546;2023-03-01T13:52:52;11.30;;;6.60;;
77984;SDS011;67177;47.240;-1.546;2023-03-01T13:58:43;12.53;;;6.87;;
77984;SDS011;67177;47.240;-1.546;2023-03-01T14:04:03;13.73;;;6.93;;
77984;SDS011;67177;47.240;-1.546;2023-03-01T14:06:50;10.88;;;6.43;;
77984;SDS011;67177;47.240;-1.546;2023-03-01T14:09:18;12.90;;;6.82;;
77984;SDS011;67177;47.240;-1.546;2023-03-01T14:19:41;11.95;;;6.82;;
77984;SDS011;67177;47.240;-1.546;2023-03-01T14:25:05;11.23;;;6.67;;
77984;SDS011;67177;47.240;-1.546;2023-03-01T14:27:42;12.35;;;7.05;;
77984;SDS011;67177;47.240;-1.546;2023-03-01T14:30:10;17.38;;;8.75;;
77984;SDS011;67177;47.240;-1.546;2023-03-01T14:32:42;14.50;;;7.90;;
77984;SDS011;67177;47.240;-1.546;2023-03-01T14:35:20;12.82;;;8.02;;
77984;SDS011;67177;47.240;-1.546;2023-03-01T14:37:48;13.87;;;7.60;;
77984;SDS011;67177;47.240;-1.546;2023-03-01T14:40:34;12.90;;;7.50;;
77984;SDS011;67177;47.240;-1.546;2023-03-01T14:43:02;12.00;;;7.30;;
77984;SDS011;67177;47.240;-1.546;2023-03-01T14:45:35;12.73;;;6.90;;
77984;SDS011;67177;47.240;-1.546;2023-03-01T14:48:02;16.83;;;9.37;;
77984;SDS011;67177;47.240;-1.546;2023-03-01T14:50:30;15.00;;;8.57;;
77984;SDS011;67177;47.240;-1.546;2023-03-01T14:52:58;15.20;;;8.52;;
77984;SDS011;67177;47.240;-1.546;2023-03-01T14:55:37;13.98;;;8.45;;
77984;SDS011;67177;47.240;-1.546;2023-03-01T14:58:09;13.90;;;8.67;;
77984;SDS011;67177;47.240;-1.546;2023-03-01T15:00:38;15.20;;;8.50;;
77984;SDS011;67177;47.240;-1.546;2023-03-01T15:03:12;13.88;;;8.18;;
77984;SDS011;67177;47.240;-1.546;2023-03-01T15:05:42;15.05;;;7.95;;
77984;SDS011;67177;47.240;-1.546;2023-03-01T15:08:13;14.40;;;8.73;;
77984;SDS011;67177;47.240;-1.546;2023-03-01T15:10:55;16.20;;;8.90;;
77984;SDS011;67177;47.240;-1.546;2023-03-01T15:13:45;16.10;;;8.88;;
77984;SDS011;67177;47.240;-1.546;2023-03-01T15:16:12;16.98;;;9.02;;
77984;SDS011;67177;47.240;-1.546;2023-03-01T15:18:48;14.45;;;8.52;;
77984;SDS011;67177;47.240;-1.546;2023-03-01T15:24:01;14.83;;;8.80;;
77984;SDS011;67177;47.240;-1.546;2023-03-01T15:29:24;14.38;;;7.97;;
77984;SDS011;67177;47.240;-1.546;2023-03-01T15:32:01;13.57;;;8.02;;
77984;SDS011;67177;47.240;-1.546;2023-03-01T15:34:45;12.50;;;6.80;;
77984;SDS011;67177;47.240;-1.546;2023-03-01T15:40:26;13.18;;;7.95;;
77984;SDS011;67177;47.240;-1.546;2023-03-01T15:43:03;15.18;;;8.60;;
77984;SDS011;67177;47.240;-1.546;2023-03-01T15:45:30;13.40;;;7.88;;
77984;SDS011;67177;47.240;-1.546;2023-03-01T15:48:02;14.20;;;7.50;;
77984;SDS011;67177;47.240;-1.546;2023-03-01T15:50:34;13.93;;;8.52;;
77984;SDS011;67177;47.240;-1.546;2023-03-01T15:53:05;13.15;;;7.68;;
77984;SDS011;67177;47.240;-1.546;2023-03-01T15:55:36;13.02;;;8.07;;
77984;SDS011;67177;47.240;-1.546;2023-03-01T16:00:31;12.93;;;7.63;;
77984;SDS011;67177;47.240;-1.546;2023-03-01T16:02:58;12.73;;;7.55;;
77984;SDS011;67177;47.240;-1.546;2023-03-01T16:05:27;12.35;;;7.10;;
77984;SDS011;67177;47.240;-1.546;2023-03-01T16:07:55;12.38;;;6.93;;
77984;SDS011;67177;47.240;-1.546;2023-03-01T16:10:21;14.15;;;8.45;;
77984;SDS011;67177;47.240;-1.546;2023-03-01T16:12:48;15.30;;;8.85;;
77984;SDS011;67177;47.240;-1.546;2023-03-01T16:17:49;13.43;;;8.13;;
77984;SDS011;67177;47.240;-1.546;2023-03-01T16:20:15;16.08;;;9.32;;
77984;SDS011;67177;47.240;-1.546;2023-03-01T16:22:44;15.23;;;9.13;;
77984;SDS011;67177;47.240;-1.546;2023-03-01T16:25:15;13.60;;;7.75;;
77984;SDS011;67177;47.240;-1.546;2023-03-01T16:27:42;13.35;;;8.40;;
77984;SDS011;67177;47.240;-1.546;2023-03-01T16:30:14;12.25;;;7.10;;
77984;SDS011;67177;47.240;-1.546;2023-03-01T16:32:41;12.02;;;6.78;;
77984;SDS011;67177;47.240;-1.546;2023-03-01T16:35:08;14.73;;;8.13;;
77984;SDS011;67177;47.240;-1.546;2023-03-01T16:37:36;14.63;;;8.05;;
77984;SDS011;67177;47.240;-1.546;2023-03-01T16:40:03;12.73;;;8.43;;
77984;SDS011;67177;47.240;-1.546;2023-03-01T16:42:33;14.07;;;8.00;;
77984;SDS011;67177;47.240;-1.546;2023-03-01T16:44:59;12.25;;;7.20;;
77984;SDS011;67177;47.240;-1.546;2023-03-01T16:47:26;12.43;;;8.37;;
77984;SDS011;67177;47.240;-1.546;2023-03-01T16:49:52;12.73;;;7.40;;
77984;SDS011;67177;47.240;-1.546;2023-03-01T16:52:19;12.82;;;7.32;;
77984;SDS011;67177;47.240;-1.546;2023-03-01T16:54:45;12.27;;;7.15;;
77984;SDS011;67177;47.240;-1.546;2023-03-01T16:57:11;12.60;;;7.23;;
77984;SDS011;67177;47.240;-1.546;2023-03-01T16:59:37;14.10;;;8.15;;
77984;SDS011;67177;47.240;-1.546;2023-03-01T17:02:03;11.57;;;7.10;;